Time;durP1;ratioP1;P1;durP2;ratioP2;P2;SDS_P1;SDS_P2;PMS_P1;PMS_P2;Temp;Humidity;BMP_temperature;BMP_pressure;BME280_temperature;BME280_humidity;BME280_pressure;Samples;Min_cycle;Max_cycle;Signal;HPM_P1;HPM_P2
2024/04/11 00:00:47;;;;;;;10.60;8.77;;;;;;;;;;5224243;27;20458;-87
2024/04/11 00:03:16;;;;;;;13.57;8.90;;;;;;;;;;5227888;27;20481;-87
2024/04/11 00:05:43;;;;;;;10.17;7.53;;;;;;;;;;5227398;27;20438;-88
2024/04/11 00:08:13;;;;;;;7.73;6.53;;;;;;;;;;5227030;27;20568;-88
2024/04/11 00:10:40;;;;;;;8.07;6.73;;;;;;;;;;5223926;27;20501;-87
2024/04/11 00:13:10;;;;;;;12.90;8.60;;;;;;;;;;5228104;27;20463;-87
2024/04/11 00:15:40;;;;;;;12.27;8.30;;;;;;;;;;5230629;27;20475;-87
2024/04/11 00:18:10;;;;;;;9.60;7.63;;;;;;;;;;5224244;27;20514;-87
2024/04/11 00:20:37;;;;;;;9.97;7.47;;;;;;;;;;5225022;27;20431;-87
2024/04/11 00:23:06;;;;;;;6.77;6.07;;;9.40;99.90;;;;;;5229540;27;20546;-86
2024/04/11 00:25:32;;;;;;;13.63;7.87;;;9.50;99.90;;;;;;5237680;27;20443;-87
2024/04/11 00:28:00;;;;;;;11.23;6.97;;;9.50;99.90;;;;;;5224995;27;20447;-87
2024/04/11 00:30:29;;;;;;;11.83;7.77;;;9.60;99.90;;;;;;5224825;27;20502;-87
2024/04/11 00:33:00;;;;;;;15.37;10.10;;;9.60;99.90;;;;;;5235877;27;20508;-87
2024/04/11 00:35:26;;;;;;;18.33;9.60;;;9.50;99.90;;;;;;5222566;27;20461;-86
2024/04/11 00:37:55;;;;;;;11.30;8.03;;;9.50;99.90;;;;;;5222325;27;21032;-86
2024/04/11 00:40:21;;;;;;;8.20;7.43;;;9.50;99.90;;;;;;5223001;27;20462;-87
2024/04/11 00:42:50;;;;;;;8.90;6.37;;;9.40;99.90;;;;;;5228261;27;20523;-86
2024/04/11 00:45:16;;;;;;;8.03;6.10;;;9.40;99.90;;;;;;5230349;27;20568;-87
2024/04/11 00:47:44;;;;;;;10.47;7.40;;;9.30;99.90;;;;;;5235909;27;20521;-86
2024/04/11 00:50:15;;;;;;;8.87;6.43;;;9.30;99.90;;;;;;5237497;27;20502;-86
2024/04/11 00:52:45;;;;;;;11.70;6.10;;;;;;;;;;5225098;27;20879;-87
2024/04/11 00:55:12;;;;;;;6.17;5.57;;;;;;;;;;5223358;27;20517;-86
2024/04/11 00:57:41;;;;;;;7.37;5.83;;;;;;;;;;5223505;27;20503;-87
2024/04/11 01:00:10;;;;;;;11.53;5.03;;;;;;;;;;5223364;27;20463;-87
2024/04/11 01:02:42;;;;;;;7.90;5.50;;;;;;;;;;5229800;27;21003;-85
2024/04/11 01:05:08;;;;;;;5.83;5.30;;;;;;;;;;5236353;27;20494;-86
2024/04/11 01:07:40;;;;;;;8.37;5.43;;;;;;;;;;5236863;27;20485;-86
2024/04/11 01:10:16;;;;;;;7.20;5.67;;;;;;;;;;5233137;27;20462;-87
2024/04/11 01:12:46;;;;;;;11.17;6.13;;;;;;;;;;5223513;27;20518;-87
2024/04/11 01:15:13;;;;;;;12.20;7.40;;;;;;;;;;5223273;27;20482;-88
2024/04/11 01:17:47;;;;;;;8.57;6.63;;;;;;;;;;5223698;27;20450;-87
2024/04/11 01:20:15;;;;;;;9.33;6.70;;;;;;;;;;5223840;27;20501;-88
2024/04/11 01:22:48;;;;;;;6.97;6.27;;;;;;;;;;5224122;27;21004;-87
2024/04/11 01:25:17;;;;;;;6.37;5.80;;;;;;;;;;5224353;27;20483;-88
2024/04/11 01:27:47;;;;;;;9.40;5.93;;;;;;;;;;5230328;27;20442;-87
2024/04/11 01:30:14;;;;;;;9.67;6.30;;;;;;;;;;5221875;27;20459;-87
2024/04/11 01:32:45;;;;;;;5.70;5.00;;;;;;;;;;5225027;27;20467;-87
2024/04/11 01:35:12;;;;;;;7.10;6.43;;;;;;;;;;5231349;27;20486;-87
2024/04/11 01:37:44;;;;;;;6.53;5.87;;;;;;;;;;5230304;27;20474;-87
2024/04/11 01:40:18;;;;;;;10.20;5.57;;;8.30;1.00;;;;;;5233148;27;20427;-88
2024/04/11 01:42:46;;;;;;;7.50;6.40;;;8.40;1.00;;;;;;5234821;27;20499;-86
2024/04/11 01:45:12;;;;;;;9.83;7.40;;;8.40;1.00;;;;;;5235484;27;20450;-87
2024/04/11 01:47:42;;;;;;;9.13;7.30;;;8.40;1.00;;;;;;5232611;27;20501;-88
2024/04/11 01:50:07;;;;;;;7.60;6.80;;;8.40;1.00;;;;;;5226011;27;20439;-87
2024/04/11 01:52:36;;;;;;;8.70;7.80;;;8.20;1.00;;;;;;5224523;27;20507;-86
2024/04/11 01:55:03;;;;;;;9.73;7.63;;;8.20;1.00;;;;;;5223271;27;20998;-87
2024/04/11 01:57:37;;;;;;;8.73;7.90;;;;;;;;;;5227684;27;20435;-87
2024/04/11 02:00:06;;;;;;;9.33;8.27;;;;;;;;;;5233940;27;20431;-85
2024/04/11 02:02:36;;;;;;;11.63;7.30;;;;;;;;;;5234346;27;20447;-89
2024/04/11 02:05:02;;;;;;;10.07;7.87;;;8.20;1.00;;;;;;5234814;27;20615;-89
2024/04/11 02:07:34;;;;;;;11.57;9.17;;;8.10;1.00;;;;;;5226103;27;20487;-86
2024/04/11 02:10:02;;;;;;;11.30;7.87;;;8.10;1.00;;;;;;5225572;27;20499;-87
2024/04/11 02:12:33;;;;;;;12.50;6.97;;;8.10;1.00;;;;;;5226475;27;20459;-87
2024/04/11 02:14:59;;;;;;;8.50;7.47;;;8.00;1.00;;;;;;5234652;27;20435;-86
2024/04/11 02:17:30;;;;;;;9.03;8.10;;;7.90;1.00;;;;;;5219929;27;20447;-86
2024/04/11 02:19:56;;;;;;;9.23;7.57;;;8.00;64.90;;;;;;5227174;27;20446;-86
2024/04/11 02:22:25;;;;;;;9.10;7.47;;;8.00;99.90;;;;;;5229732;27;20508;-87
2024/04/11 02:24:51;;;;;;;12.53;8.40;;;7.90;99.90;;;;;;5225659;27;20495;-86
2024/04/11 02:27:23;;;;;;;15.27;7.90;;;;;;;;;;5224824;27;20874;-87
2024/04/11 02:29:53;;;;;;;7.83;7.03;;;;;;;;;;5223720;27;20474;-87
2024/04/11 02:32:24;;;;;;;10.00;7.60;;;;;;;;;;5224498;27;20551;-87
2024/04/11 02:34:49;;;;;;;8.60;7.80;;;7.80;99.90;;;;;;5223515;27;20557;-87
2024/04/11 02:37:18;;;;;;;12.17;7.23;;;7.90;99.90;;;;;;5230555;27;20419;-87
2024/04/11 02:39:45;;;;;;;9.67;7.90;;;;;;;;;;5218525;27;20474;-88
2024/04/11 02:42:13;;;;;;;8.93;6.90;;;7.90;99.90;;;;;;5215956;27;20525;-88
2024/04/11 02:44:40;;;;;;;14.20;7.90;;;7.90;99.90;;;;;;5218989;27;20458;-88
2024/04/11 02:47:13;;;;;;;8.57;7.30;;;;;;;;;;5220266;27;20591;-86
2024/04/11 02:49:41;;;;;;;8.70;7.60;;;;;;;;;;5219553;27;20470;-87
2024/04/11 02:52:13;;;;;;;8.00;6.73;;;;;;;;;;5220931;27;20510;-87
2024/04/11 02:54:39;;;;;;;8.80;7.60;;;;;;;;;;5221425;27;20459;-87
2024/04/11 02:57:09;;;;;;;10.90;7.80;;;;;;;;;;5225905;27;20498;-87
2024/04/11 02:59:35;;;;;;;12.23;7.13;;;;;;;;;;5224930;27;20439;-87
2024/04/11 03:02:04;;;;;;;10.80;7.77;;;;;;;;;;5222446;27;20555;-87
2024/04/11 03:04:34;;;;;;;9.20;7.80;;;;;;;;;;5222286;27;20463;-88
2024/04/11 03:07:04;;;;;;;11.07;7.90;;;;;;;;;;5222434;27;20482;-88
2024/04/11 03:09:31;;;;;;;11.13;8.67;;;;;;;;;;5222938;27;20443;-87
2024/04/11 03:12:01;;;;;;;11.27;8.53;;;;;;;;;;5223028;27;20431;-87
2024/04/11 03:14:29;;;;;;;8.50;7.70;;;;;;;;;;5225106;27;20945;-87
2024/04/11 03:16:59;;;;;;;13.73;9.00;;;;;;;;;;5226326;27;20551;-87
2024/04/11 03:19:26;;;;;;;10.93;7.97;;;;;;;;;;5229586;27;20435;-88
2024/04/11 03:21:59;;;;;;;10.30;8.90;;;;;;;;;;5224601;27;20528;-87
2024/04/11 03:24:27;;;;;;;15.40;8.47;;;;;;;;;;5223842;27;20450;-87
2024/04/11 03:27:00;;;;;;;15.83;9.00;;;;;;;;;;5223934;27;20522;-86
2024/04/11 03:29:28;;;;;;;9.33;7.73;;;;;;;;;;5227691;27;20822;-87
2024/04/11 03:31:58;;;;;;;12.37;7.10;;;;;;;;;;5224652;27;20431;-86
2024/04/11 03:34:25;;;;;;;8.90;8.00;;;;;;;;;;5224049;27;20483;-87
2024/04/11 03:36:54;;;;;;;11.67;7.90;;;;;;;;;;5222623;27;20568;-87
2024/04/11 03:39:25;;;;;;;10.57;7.33;;;;;;;;;;5224108;27;20507;-86
2024/04/11 03:41:54;;;;;;;9.33;7.80;;;;;;;;;;5226768;27;20533;-86
2024/04/11 03:44:25;;;;;;;8.77;7.87;;;;;;;;;;5234297;27;20484;-84
2024/04/11 03:46:58;;;;;;;19.50;8.07;;;;;;;;;;5235112;27;20462;-84
2024/04/11 03:49:28;;;;;;;10.83;7.40;;;7.70;99.90;;;;;;5228588;27;20219;-86
2024/04/11 03:51:55;;;;;;;9.40;7.23;;;7.80;99.90;;;;;;5224739;27;20821;-87
2024/04/11 03:54:27;;;;;;;11.20;7.10;;;;;;;;;;5222551;27;20471;-87
2024/04/11 03:56:53;;;;;;;8.10;7.30;;;;;;;;;;5222497;27;20550;-87
2024/04/11 03:59:24;;;;;;;9.87;7.30;;;;;;;;;;5222645;27;20619;-87
2024/04/11 04:01:54;;;;;;;9.97;7.00;;;;;;;;;;5223556;27;20479;-86
2024/04/11 04:04:19;;;;;;;12.13;8.10;;;7.80;99.90;;;;;;5224825;27;20991;-87
2024/04/11 04:06:48;;;;;;;14.37;7.70;;;7.70;99.90;;;;;;5222980;27;20563;-87
2024/04/11 04:09:15;;;;;;;12.70;9.00;;;7.80;99.90;;;;;;5220194;27;20939;-87
2024/04/11 04:11:47;;;;;;;13.50;8.67;;;;;;;;;;5219170;27;20559;-88
2024/04/11 04:14:14;;;;;;;10.17;8.50;;;;;;;;;;5217255;27;21032;-88
2024/04/11 04:16:45;;;;;;;10.57;8.70;;;;;;;;;;5219828;27;20540;-88
2024/04/11 04:19:12;;;;;;;20.00;9.17;;;7.70;1.00;;;;;;5219761;27;20482;-87
2024/04/11 04:21:41;;;;;;;20.07;8.87;;;7.70;1.00;;;;;;5219917;27;20443;-88
2024/04/11 04:24:08;;;;;;;14.60;8.80;;;7.70;99.90;;;;;;5219049;27;20463;-88
2024/04/11 04:26:39;;;;;;;11.77;8.40;;;;;;;;;;5219410;27;20482;-87
2024/04/11 04:29:09;;;;;;;13.80;9.07;;;;;;;;;;5219847;27;21031;-87
2024/04/11 04:31:40;;;;;;;12.27;8.50;;;;;;;;;;5222193;27;20435;-88
2024/04/11 04:34:09;;;;;;;10.33;8.10;;;;;;;;;;5219452;27;20524;-87
2024/04/11 04:36:46;;;;;;;12.70;8.27;;;;;;;;;;5219808;27;20552;-87
2024/04/11 04:39:16;;;;;;;17.07;8.90;;;;;;;;;;5223683;27;20498;-87
2024/04/11 04:41:47;;;;;;;13.43;8.47;;;;;;;;;;5219831;27;20459;-87
2024/04/11 04:44:17;;;;;;;15.30;7.30;;;;;;;;;;5226526;27;20434;-87
2024/04/11 04:46:48;;;;;;;10.63;8.20;;;;;;;;;;5219925;27;20575;-88
2024/04/11 04:49:21;;;;;;;13.57;8.57;;;;;;;;;;5222440;27;20391;-87
2024/04/11 04:51:52;;;;;;;10.23;8.37;;;;;;;;;;5220631;27;20555;-87
2024/04/11 04:54:20;;;;;;;12.07;7.70;;;;;;;;;;5220409;27;20833;-87
2024/04/11 04:56:52;;;;;;;10.70;7.23;;;;;;;;;;5220676;27;20462;-87
2024/04/11 04:59:22;;;;;;;10.47;7.63;;;;;;;;;;5219987;27;20447;-87
2024/04/11 05:01:53;;;;;;;12.30;7.90;;;;;;;;;;5221204;27;20979;-87
2024/04/11 05:04:21;;;;;;;10.90;8.90;;;;;;;;;;5224574;27;20443;-87
2024/04/11 05:06:54;;;;;;;12.30;7.10;;;;;;;;;;5230886;27;20439;-88
2024/04/11 05:09:23;;;;;;;11.03;8.77;;;;;;;;;;5231551;27;20515;-88
2024/04/11 05:11:53;;;;;;;8.60;7.70;;;;;;;;;;5235695;27;20471;-87
2024/04/11 05:14:24;;;;;;;12.50;8.90;;;;;;;;;;5236931;27;20433;-86
2024/04/11 05:16:53;;;;;;;10.60;8.57;;;;;;;;;;5228127;27;20520;-87
2024/04/11 05:19:20;;;;;;;15.60;9.10;;;;;;;;;;5226578;27;20502;-87
2024/04/11 05:21:50;;;;;;;15.53;7.70;;;;;;;;;;5233334;27;20459;-86
2024/04/11 05:24:17;;;;;;;11.47;8.27;;;;;;;;;;5235912;27;20435;-87
2024/04/11 05:26:50;;;;;;;11.50;8.30;;;;;;;;;;5226307;27;20877;-87
2024/04/11 05:29:18;;;;;;;11.23;8.87;;;;;;;;;;5223859;27;20451;-87
2024/04/11 05:31:51;;;;;;;9.63;7.77;;;;;;;;;;5247410;22;20485;-85
2024/04/11 05:34:20;;;;;;;10.77;8.43;;;;;;;;;;5257811;27;20989;-88
2024/04/11 05:36:49;;;;;;;11.50;8.30;;;;;;;;;;5266950;27;20476;-85
2024/04/11 05:39:20;;;;;;;12.57;8.40;;;;;;;;;;5270392;27;20418;-83
2024/04/11 05:41:49;;;;;;;11.73;8.50;;;;;;;;;;5253178;27;20495;-85
2024/04/11 05:44:16;;;;;;;10.37;9.00;;;;;;;;;;5225094;27;20470;-85
2024/04/11 05:46:46;;;;;;;14.83;8.47;;;;;;;;;;5227445;27;20600;-88
2024/04/11 05:49:17;;;;;;;14.33;9.27;;;;;;;;;;5227486;27;20526;-86
2024/04/11 05:51:47;;;;;;;15.33;8.50;;;;;;;;;;5228457;27;20478;-88
2024/04/11 05:54:16;;;;;;;12.87;9.13;;;;;;;;;;5222157;27;20435;-88
2024/04/11 05:56:50;;;;;;;11.70;7.30;;;;;;;;;;5219527;27;20515;-88
2024/04/11 05:59:18;;;;;;;16.07;8.50;;;;;;;;;;5220880;27;20431;-87
2024/04/11 06:01:50;;;;;;;11.70;8.23;;;;;;;;;;5218805;27;20451;-88
2024/04/11 06:04:25;;;;;;;11.67;8.30;;;;;;;;;;5218183;27;20439;-88
2024/04/11 06:06:57;;;;;;;8.70;7.80;;;;;;;;;;5219302;27;20552;-88
2024/04/11 06:09:26;;;;;;;9.00;7.80;;;;;;;;;;5220245;27;20507;-88
2024/04/11 06:11:59;;;;;;;16.07;8.10;;;;;;;;;;5229965;27;20499;-89
2024/04/11 06:14:35;;;;;;;11.50;7.10;;;;;;;;;;5226850;27;20485;-89
2024/04/11 06:17:09;;;;;;;13.30;8.37;;;;;;;;;;5229536;27;20505;-88
2024/04/11 06:19:41;;;;;;;10.87;8.10;;;;;;;;;;5230028;27;20438;-89
2024/04/11 06:22:11;;;;;;;13.27;8.40;;;;;;;;;;5234700;27;20547;-88
2024/04/11 06:24:47;;;;;;;11.00;7.93;;;;;;;;;;5224239;27;20483;-89
2024/04/11 06:27:43;;;;;;;;;;;;;;;;;;;;;
2024/04/11 06:30:14;;;;;;;16.00;8.57;;;;;;;;;;5230650;27;20379;-89
2024/04/11 06:32:46;;;;;;;11.37;7.90;;;;;;;;;;5235796;27;20494;-87
2024/04/11 06:35:18;;;;;;;8.60;7.23;;;;;;;;;;5236015;27;20458;-87
2024/04/11 06:37:48;;;;;;;9.67;7.17;;;;;;;;;;5235782;27;20535;-87
2024/04/11 06:40:16;;;;;;;11.63;7.93;;;;;;;;;;5232438;27;20790;-87
2024/04/11 06:42:50;;;;;;;9.37;7.30;;;;;;;;;;5223657;27;20567;-87
2024/04/11 06:45:23;;;;;;;10.80;8.03;;;;;;;;;;5219546;27;20443;-88
2024/04/11 06:47:56;;;;;;;11.57;7.07;;;;;;;;;;5222591;27;20539;-88
2024/04/11 06:50:27;;;;;;;7.67;6.80;;;;;;;;;;5223757;27;20458;-88
2024/04/11 06:52:59;;;;;;;10.30;6.70;;;;;;;;;;5227999;27;20447;-88
2024/04/11 06:55:26;;;;;;;10.80;7.70;;;;;;;;;;5222968;27;20431;-87
2024/04/11 06:57:56;;;;;;;11.00;7.10;;;;;;;;;;5223186;27;20467;-88
2024/04/11 07:00:35;;;;;;;9.73;7.23;;;;;;;;;;5235266;27;20432;-88
2024/04/11 07:03:26;;;;;;;12.70;8.27;;;;;;;;;;5235069;27;20451;-86
2024/04/11 07:06:09;;;;;;;9.77;7.13;;;;;;;;;;5230776;27;21063;-88
2024/04/11 07:09:04;;;;;;;10.00;7.57;;;;;;;;;;5230632;27;20474;-88
2024/04/11 07:11:32;;;;;;;9.27;6.43;;;;;;;;;;5222278;27;21058;-88
2024/04/11 07:14:10;;;;;;;11.93;6.57;;;;;;;;;;5220882;27;20590;-89
2024/04/11 07:16:44;;;;;;;12.70;7.87;;;;;;;;;;5228987;27;20474;-88
2024/04/11 07:19:18;;;;;;;9.87;7.00;;;;;;;;;;5232731;27;20438;-88
2024/04/11 07:21:48;;;;;;;9.10;6.90;;;;;;;;;;5232939;27;20507;-88
2024/04/11 07:24:18;;;;;;;9.77;6.53;;;11.90;99.90;;;;;;5234320;27;20467;-87
2024/04/11 07:26:48;;;;;;;10.20;6.77;;;;;;;;;;5234907;27;20479;-87
2024/04/11 07:29:21;;;;;;;11.10;6.80;;;12.20;99.90;;;;;;5234992;27;20497;-88
2024/04/11 07:31:48;;;;;;;13.10;8.70;;;12.40;99.90;;;;;;5235233;27;20443;-86
2024/04/11 07:34:20;;;;;;;13.63;9.27;;;;;;;;;;5230803;27;20467;-88
2024/04/11 07:36:51;;;;;;;8.63;5.90;;;;;;;;;;5225499;27;20512;-88
2024/04/11 07:39:22;;;;;;;8.10;5.30;;;;;;;;;;5218860;27;20470;-88
2024/04/11 07:42:00;;;;;;;6.83;6.13;;;;;;;;;;5216102;27;20594;-88
2024/04/11 07:44:36;;;;;;;6.00;5.40;;;;;;;;;;5215690;27;20463;-88
2024/04/11 07:47:07;;;;;;;11.33;5.90;;;;;;;;;;5216248;27;20438;-88
2024/04/11 07:49:47;;;;;;;16.53;6.97;;;;;;;;;;5216452;27;20474;-88
2024/04/11 07:52:17;;;;;;;5.63;5.13;;;;;;;;;;5216119;27;20503;-88
2024/04/11 07:54:53;;;;;;;11.90;5.97;;;;;;;;;;5216642;27;20502;-88
2024/04/11 07:57:21;;;;;;;6.73;4.47;;;;;;;;;;5215954;27;20466;-89
2024/04/11 07:59:55;;;;;;;8.23;4.80;;;;;;;;;;5216851;27;20483;-88
2024/04/11 08:02:28;;;;;;;6.80;5.90;;;13.50;68.20;;;;;;5216868;27;20567;-88
2024/04/11 08:04:59;;;;;;;6.80;5.23;;;13.70;59.60;;;;;;5216001;27;20523;-88
2024/04/11 08:07:28;;;;;;;6.30;5.07;;;;;;;;;;5215935;27;20419;-88
2024/04/11 08:09:58;;;;;;;15.57;8.13;;;;;;;;;;5215312;27;21051;-89
2024/04/11 08:12:27;;;;;;;9.20;5.30;;;;;;;;;;5215016;27;20478;-88
2024/04/11 08:14:59;;;;;;;5.63;3.70;;;;;;;;;;5215744;27;20507;-88
2024/04/11 08:17:28;;;;;;;7.20;3.93;;;;;;;;;;5214990;27;20571;-88
2024/04/11 08:19:58;;;;;;;6.00;3.70;;;;;;;;;;5214654;27;20458;-89
2024/04/11 08:22:27;;;;;;;6.77;3.70;;;;;;;;;;5216470;27;20570;-89
2024/04/11 08:25:00;;;;;;;3.43;3.10;;;;;;;;;;5218382;27;20601;-88
2024/04/11 08:27:27;;;;;;;5.10;3.10;;;;;;;;;;5219082;27;20510;-88
2024/04/11 08:29:59;;;;;;;6.37;3.33;;;;;;;;;;5218412;27;20463;-88
2024/04/11 08:32:27;;;;;;;7.53;3.93;;;;;;;;;;5217509;27;20490;-88
2024/04/11 08:35:00;;;;;;;4.90;2.80;;;;;;;;;;5218900;27;20518;-88
2024/04/11 08:37:29;;;;;;;5.83;2.83;;;;;;;;;;5217766;27;20455;-88
2024/04/11 08:40:04;;;;;;;5.10;2.70;;;;;;;;;;5217992;27;20474;-88
2024/04/11 08:42:33;;;;;;;3.43;2.67;;;;;;;;;;5223278;27;20485;-88
2024/04/11 08:45:06;;;;;;;3.27;2.77;;;;;;;;;;5226600;27;20519;-87
2024/04/11 08:47:35;;;;;;;3.23;2.70;;;;;;;;;;5217571;27;20478;-86
2024/04/11 08:50:06;;;;;;;3.43;2.70;;;;;;;;;;5218094;27;20450;-87
2024/04/11 08:52:35;;;;;;;3.20;2.70;;;;;;;;;;5224356;27;20569;-87
2024/04/11 08:55:10;;;;;;;2.70;2.50;;;;;;;;;;5225252;27;21080;-87
2024/04/11 08:57:38;;;;;;;6.10;3.50;;;;;;;;;;5218843;27;20466;-87
2024/04/11 09:00:12;;;;;;;4.37;2.53;;;;;;;;;;5219552;27;20593;-87
2024/04/11 09:02:41;;;;;;;5.73;3.20;;;;;;;;;;5224812;27;20555;-87
2024/04/11 09:05:14;;;;;;;2.20;2.10;;;;;;;;;;5227103;27;20478;-88
2024/04/11 09:07:44;;;;;;;5.00;2.67;;;;;;;;;;5224532;27;20814;-88
2024/04/11 09:10:19;;;;;;;5.13;2.60;;;;;;;;;;5226327;27;20495;-87
2024/04/11 09:12:46;;;;;;;6.33;2.50;;;;;;;;;;5236363;27;20470;-86
2024/04/11 09:15:20;;;;;;;4.33;3.10;;;;;;;;;;5236989;27;20446;-86
2024/04/11 09:17:50;;;;;;;10.30;3.57;;;;;;;;;;5236982;27;20451;-86
2024/04/11 09:20:24;;;;;;;5.60;2.80;;;;;;;;;;5236765;27;21126;-87
2024/04/11 09:22:55;;;;;;;6.27;3.20;;;;;;;;;;5235288;27;20474;-86
2024/04/11 09:25:29;;;;;;;2.63;2.30;;;;;;;;;;5230286;27;20454;-87
2024/04/11 09:28:01;;;;;;;4.70;3.80;;;;;;;;;;5223073;27;20449;-86
2024/04/11 09:30:34;;;;;;;5.20;2.90;;;16.00;1.00;;;;;;5225922;27;20580;-86
2024/04/11 09:33:04;;;;;;;6.23;2.63;;;16.00;1.00;;;;;;5227185;27;20466;-89
2024/04/11 09:35:40;;;;;;;8.50;2.60;;;16.00;1.00;;;;;;5227917;27;20531;-88
2024/04/11 09:38:12;;;;;;;3.10;2.20;;;16.10;1.00;;;;;;5230026;27;20546;-88
2024/04/11 09:40:50;;;;;;;4.20;2.07;;;;;;;;;;5227633;27;21092;-88
2024/04/11 09:43:19;;;;;;;3.60;1.80;;;16.50;27.70;;;;;;5225671;27;20867;-88
2024/04/11 09:45:50;;;;;;;4.77;2.47;;;;;;;;;;5223056;27;20455;-88
2024/04/11 09:48:21;;;;;;;5.80;2.27;;;16.60;25.30;;;;;;5224408;27;20471;-88
2024/04/11 09:50:48;;;;;;;2.37;2.17;;;16.60;1.00;;;;;;5235555;27;20494;-87
2024/04/11 09:53:26;;;;;;;3.87;2.60;;;16.50;1.00;;;;;;5236220;27;20435;-88
2024/04/11 09:55:56;;;;;;;3.33;2.20;;;16.50;1.00;;;;;;5236127;27;20443;-86
2024/04/11 09:58:28;;;;;;;4.40;2.23;;;16.40;1.00;;;;;;5223760;27;20470;-88
2024/04/11 10:01:06;;;;;;;2.70;1.70;;;16.50;1.00;;;;;;5220321;27;20486;-88
2024/04/11 10:03:40;;;;;;;2.13;1.83;;;;;;;;;;5220162;27;20466;-89
2024/04/11 10:06:13;;;;;;;3.17;1.53;;;;;;;;;;5219886;27;20471;-87
2024/04/11 10:08:47;;;;;;;4.70;1.77;;;;;;;;;;5219810;27;20899;-89
2024/04/11 10:11:17;;;;;;;4.50;1.97;;;;;;;;;;5222063;27;20586;-89
2024/04/11 10:13:49;;;;;;;1.60;1.50;;;;;;;;;;5220637;27;20455;-88
2024/04/11 10:16:22;;;;;;;3.67;2.50;;;;;;;;;;5220217;27;20915;-89
2024/04/11 10:19:04;;;;;;;4.80;1.80;;;;;;;;;;5223122;27;20991;-88
2024/04/11 10:21:32;;;;;;;1.87;1.70;;;;;;;;;;5221296;27;20498;-88
2024/04/11 10:24:03;;;;;;;3.23;1.87;;;;;;;;;;5218090;27;20463;-88
2024/04/11 10:26:33;;;;;;;2.50;1.87;;;;;;;;;;5217958;27;20471;-88
2024/04/11 10:29:03;;;;;;;2.70;2.20;;;;;;;;;;5219426;27;20478;-88
2024/04/11 10:31:34;;;;;;;2.20;2.00;;;;;;;;;;5218474;27;20521;-89
2024/04/11 10:34:10;;;;;;;3.77;1.57;;;;;;;;;;5218396;27;20491;-88
2024/04/11 10:36:42;;;;;;;3.20;1.77;;;;;;;;;;5225658;27;20462;-88
2024/04/11 10:39:15;;;;;;;7.30;5.10;;;;;;;;;;5223402;27;20462;-88
2024/04/11 10:41:46;;;;;;;12.10;7.70;;;;;;;;;;5224707;27;20519;-88
2024/04/11 10:44:16;;;;;;;4.70;3.10;;;;;;;;;;5218526;27;20452;-89
2024/04/11 10:46:44;;;;;;;7.47;4.07;;;;;;;;;;5218032;27;20459;-89
2024/04/11 10:49:15;;;;;;;12.57;7.97;;;;;;;;;;5219895;27;20459;-88
2024/04/11 10:51:47;;;;;;;10.50;7.07;;;;;;;;;;5220712;27;20474;-88
2024/04/11 10:54:26;;;;;;;7.43;4.10;;;;;;;;;;5233093;27;20507;-88
2024/04/11 10:57:04;;;;;;;6.20;3.00;;;;;;;;;;5234022;27;20551;-88
2024/04/11 10:59:38;;;;;;;3.00;2.23;;;16.80;1.00;;;;;;5230236;27;20530;-88
2024/04/11 11:02:11;;;;;;;3.47;2.30;;;16.60;1.00;;;;;;5223657;27;20565;-88
2024/04/11 11:04:43;;;;;;;7.17;2.63;;;16.70;1.00;;;;;;5234530;27;20451;-86
2024/04/11 11:07:10;;;;;;;3.10;2.40;;;;;;;;;;5235592;27;20552;-87
2024/04/11 11:09:42;;;;;;;3.50;2.37;;;;;;;;;;5223578;27;20455;-87
2024/04/11 11:12:12;;;;;;;3.70;1.70;;;;;;;;;;5221091;27;20482;-88
2024/04/11 11:14:41;;;;;;;2.63;1.90;;;;;;;;;;5232181;27;20502;-88
2024/04/11 11:17:17;;;;;;;2.47;2.27;;;;;;;;;;5228362;27;20452;-88
2024/04/11 11:19:49;;;;;;;5.87;1.80;;;;;;;;;;5219973;27;20509;-88
2024/04/11 11:22:18;;;;;;;5.57;2.20;;;;;;;;;;5219737;27;20478;-88
2024/04/11 11:24:48;;;;;;;3.57;1.77;;;;;;;;;;5220432;27;20455;-87
2024/04/11 11:27:20;;;;;;;2.97;2.20;;;;;;;;;;5220271;27;20451;-88
2024/04/11 11:29:56;;;;;;;3.20;1.53;;;;;;;;;;5220346;27;20467;-87
2024/04/11 11:32:25;;;;;;;6.70;2.47;;;;;;;;;;5261415;22;20552;-86
2024/04/11 11:34:55;;;;;;;9.17;3.90;;;;;;;;;;5263209;27;20457;-87
2024/04/11 11:37:31;;;;;;;4.83;3.20;;;;;;;;;;5266036;27;20458;-87
2024/04/11 11:40:37;;;;;;;3.60;2.60;;;;;;;;;;5264795;27;20446;-87
2024/04/11 11:42:56;;;;;;;2.70;2.50;;;16.50;1.00;;;;;;5226811;27;20451;-86
2024/04/11 11:45:29;;;;;;;4.50;2.30;;;16.60;1.00;;;;;;5220651;27;20463;-86
2024/04/11 11:47:57;;;;;;;4.07;2.50;;;16.60;1.00;;;;;;5220572;27;20463;-88
2024/04/11 11:50:35;;;;;;;7.00;3.33;;;16.70;1.00;;;;;;5223573;27;21063;-88
2024/04/11 11:53:24;;;;;;;4.73;2.30;;;17.20;1.00;;;;;;5224051;27;20459;-87
2024/04/11 11:55:55;;;;;;;2.67;2.40;;;17.00;1.00;;;;;;5234399;27;20451;-87
2024/04/11 11:58:24;;;;;;;3.60;2.03;;;17.00;1.00;;;;;;5233630;27;20510;-87
2024/04/11 12:00:59;;;;;;;4.10;2.30;;;16.90;1.00;;;;;;5229044;27;20450;-86
2024/04/11 12:03:30;;;;;;;3.37;2.37;;;16.90;1.00;;;;;;5221256;27;20478;-87
2024/04/11 12:06:04;;;;;;;2.93;1.83;;;;;;;;;;5219302;27;20467;-86
2024/04/11 12:08:37;;;;;;;3.77;2.13;;;16.80;1.00;;;;;;5226099;27;20502;-87
2024/04/11 12:11:21;;;;;;;4.97;2.60;;;16.90;1.00;;;;;;5231580;27;20458;-87
2024/04/11 12:14:02;;;;;;;10.70;2.43;;;16.90;1.00;;;;;;5219055;27;20822;-88
2024/04/11 12:16:38;;;;;;;5.87;2.00;;;;;;;;;;5217884;27;20530;-87
2024/04/11 12:19:05;;;;;;;3.80;1.87;;;16.70;1.00;;;;;;5216261;27;20578;-87
2024/04/11 12:21:44;;;;;;;5.10;2.20;;;16.80;1.00;;;;;;5219701;27;20486;-86
2024/04/11 12:24:13;;;;;;;3.43;1.80;;;;;;;;;;5217216;27;20528;-88
2024/04/11 12:26:46;;;;;;;6.73;1.70;;;16.80;1.00;;;;;;5218374;27;21043;-86
2024/04/11 12:29:18;;;;;;;6.13;2.33;;;16.80;1.00;;;;;;5219452;27;20458;-87
2024/04/11 12:31:50;;;;;;;3.80;2.23;;;;;;;;;;5218394;27;20483;-86
2024/04/11 12:34:17;;;;;;;2.47;1.90;;;;;;;;;;5216887;27;20502;-86
2024/04/11 12:36:56;;;;;;;7.67;3.43;;;16.80;1.00;;;;;;5227973;27;20463;-86
2024/04/11 12:39:32;;;;;;;4.43;2.57;;;16.80;1.00;;;;;;5233599;27;20505;-86
2024/04/11 12:42:06;;;;;;;3.93;1.97;;;;;;;;;;5228327;27;20541;-87
2024/04/11 12:44:36;;;;;;;3.30;1.47;;;;;;;;;;5229899;27;20505;-88
2024/04/11 12:47:13;;;;;;;5.50;2.33;;;;;;;;;;5221871;27;20455;-86
2024/04/11 12:49:43;;;;;;;3.63;1.90;;;;;;;;;;5218608;27;20468;-86
2024/04/11 12:52:13;;;;;;;5.07;2.23;;;;;;;;;;5218039;27;20531;-87
2024/04/11 12:54:40;;;;;;;3.43;2.43;;;;;;;;;;5219824;27;20467;-87
2024/04/11 12:57:10;;;;;;;3.70;2.53;;;17.30;1.00;;;;;;5218861;27;20526;-86
2024/04/11 12:59:45;;;;;;;3.50;3.20;;;17.10;1.00;;;;;;5215861;27;20884;-86
2024/04/11 13:02:19;;;;;;;2.77;2.10;;;;;;;;;;5215228;27;20602;-86
2024/04/11 13:04:49;;;;;;;7.70;1.77;;;;;;;;;;5215234;27;20515;-87
2024/04/11 13:07:19;;;;;;;4.10;2.00;;;17.10;1.00;;;;;;5224396;27;20531;-87
2024/04/11 13:09:53;;;;;;;3.37;1.93;;;17.20;1.00;;;;;;5218841;27;20522;-87
2024/04/11 13:12:24;;;;;;;2.97;1.50;;;17.10;1.00;;;;;;5224626;27;20568;-86
2024/04/11 13:14:57;;;;;;;2.60;2.40;;;17.20;1.00;;;;;;5225549;27;20506;-86
2024/04/11 13:17:26;;;;;;;1.90;1.80;;;17.20;1.00;;;;;;5229103;27;20593;-86
2024/04/11 13:19:57;;;;;;;1.77;1.40;;;17.30;1.00;;;;;;5225573;27;20459;-87
2024/04/11 13:22:26;;;;;;;4.30;2.50;;;17.20;1.00;;;;;;5230571;27;20527;-86
2024/04/11 13:24:59;;;;;;;3.00;2.13;;;17.20;1.00;;;;;;5230561;27;20507;-86
2024/04/11 13:27:37;;;;;;;2.37;1.50;;;17.00;1.00;;;;;;5223557;27;20794;-86
2024/04/11 13:30:16;;;;;;;3.60;2.70;;;17.00;1.00;;;;;;5222957;27;20470;-87
2024/04/11 13:32:48;;;;;;;3.20;2.23;;;17.10;1.00;;;;;;5222971;27;20585;-86
2024/04/11 13:35:36;;;;;;;2.43;1.57;;;17.10;1.00;;;;;;5221699;27;20499;-86
2024/04/11 13:38:12;;;;;;;7.10;2.30;;;17.10;1.00;;;;;;5222438;27;20455;-88
2024/04/11 13:41:15;;;;;;;2.77;2.37;;;16.60;1.00;;;;;;5229825;27;20576;-87
2024/04/11 13:43:44;;;;;;;2.80;2.00;;;17.10;1.00;;;;;;5232119;27;20509;-87
2024/04/11 13:46:16;;;;;;;6.17;2.80;;;17.10;1.00;;;;;;5223016;27;20556;-87
2024/04/11 13:48:47;;;;;;;4.20;2.40;;;17.10;1.00;;;;;;5223169;27;20515;-87
2024/04/11 13:51:17;;;;;;;3.97;1.90;;;17.10;1.00;;;;;;5229861;27;20478;-87
2024/04/11 13:53:44;;;;;;;2.33;1.63;;;17.10;1.00;;;;;;5228379;27;20455;-86
2024/04/11 13:56:22;;;;;;;1.90;1.80;;;17.90;1.00;;;;;;5229244;27;20503;-87
2024/04/11 13:58:49;;;;;;;6.97;2.40;;;17.10;1.00;;;;;;5227193;27;20797;-88
2024/04/11 14:01:41;;;;;;;2.80;2.23;;;17.00;1.00;;;;;;5226236;27;20540;-87
2024/04/11 14:04:15;;;;;;;6.03;2.70;;;16.80;1.00;;;;;;5222993;27;20467;-88
2024/04/11 14:09:29;;;;;;;2.57;2.20;;;16.60;1.00;;;;;;5226407;27;20475;-87
2024/04/11 14:11:56;;;;;;;2.80;2.23;;;16.80;1.00;;;;;;5225638;27;20528;-87
2024/04/11 14:14:26;;;;;;;5.77;4.60;;;17.00;1.00;;;;;;5220919;27;20471;-86
2024/04/11 14:16:56;;;;;;;2.67;2.47;;;;;;;;;;5224061;27;20451;-86
2024/04/11 14:19:38;;;;;;;4.90;2.37;;;;;;;;;;5221566;27;20471;-86
2024/04/11 14:22:26;;;;;;;4.80;2.50;;;;;;;;;;5219856;27;20486;-87
2024/04/11 14:25:22;;;;;;;5.00;2.53;;;16.90;1.00;;;;;;5220947;27;20467;-87
2024/04/11 14:27:48;;;;;;;4.30;2.70;;;;;;;;;;5220811;27;20571;-87
2024/04/11 14:30:16;;;;;;;3.03;2.00;;;17.20;1.00;;;;;;5222511;27;20512;-86